Terminal Aerodrome Forecast
Issued by NWS Portland, ME

Home | Current Version | Previous Version | Text Only | Print | Product List | Glossary On
Versions: 1 2 3 4 5 6 7 8 9 10 11 12 13 14 15 16 17
000
FTUS41 KGYX 092300
TAFCON
TAF
KCON 092320Z 1000/1024 24003KT P6SM -SHRA SCT050 BKN100
     FM100400 00000KT P6SM FEW100
     FM101200 30008KT P6SM SKC=

USA.gov is the U.S. government's official web portal to all federal, state and local government web resources and services.